Home > Products > Valid Products > TAF

000
FTUS43 KLSX 270300 AAA
TAFSTL
TAF AMD
KSTL 270317Z 2703/2806 33005KT P6SM SCT250
     FM270500 34005KT P6SM SCT040 BKN120
     FM271500 33012KT P6SM BKN040
     FM272300 01005KT P6SM SKC=



000
FTUS43 KLSX 262300
TAFSUS
TAF
KSUS 262320Z 2700/2724 33010KT P6SM SCT250
     FM270500 34005KT P6SM SCT040 BKN120
     FM271500 33012KT P6SM BKN040
     FM272300 01005KT P6SM SKC=



000
FTUS43 KLSX 262300
TAFSTL
TAF
KSTL 262320Z 2700/2806 33011KT P6SM SCT250
     FM270500 34005KT P6SM SCT040 BKN120
     FM271500 33012KT P6SM BKN040
     FM272300 01005KT P6SM SKC=



000
FTUS43 KLSX 262300
TAFCOU
TAF
KCOU 262320Z 2700/2724 33010KT P6SM BKN250
     FM270300 33006KT P6SM SCT025 BKN040
     FM272200 36010KT P6SM SKC=



000
FTUS43 KLSX 262300
TAFUIN
TAF
KUIN 262320Z 2700/2724 36006KT P6SM SCT040 BKN120
     FM271400 33011KT P6SM BKN040
     FM272000 36005KT P6SM SKC=



000
FTUS43 KLSX 262100 AAA
TAFSTL
TAF AMD
KSTL 262105Z 2621/2724 31014G19KT P6SM FEW140
     FM270000 33006KT P6SM BKN250
     FM270600 34005KT P6SM SCT020 BKN120
     FM271400 33010KT P6SM BKN040=



000
FTUS43 KLSX 261700
TAFSTL
TAF
KSTL 261720Z 2618/2724 33010KT P6SM SCT026 OVC130
     FM270000 33006KT P6SM BKN250
     FM270600 34005KT P6SM SCT020 BKN120
     FM271400 33010KT P6SM BKN040=



000
FTUS43 KLSX 261700
TAFCOU
TAF
KCOU 261720Z 2618/2718 34012KT P6SM SKC
     FM270000 33006KT P6SM BKN250
     FM270300 33006KT P6SM BKN020
     FM271400 33010KT P6SM BKN040=



000
FTUS43 KLSX 261700
TAFSTL
TAF
KSTL 261720Z 2618/2724 33010KT P6SM SCT026 OVC130
     FM270000 33006KT P6SM BKN250
     FM270600 34005KT P6SM SCT020 BKN120
     FM271400 33010KT P6SM BKN040=



000
FTUS43 KLSX 261700
TAFUIN
TAF
KUIN 261720Z 2618/2718 35012G21KT P6SM SKC
     FM270000 36006KT P6SM SCT020 BKN120
     FM271400 33010KT P6SM BKN040=



000
FTUS43 KLSX 261700
TAFUIN
TAF
KUIN 261720Z 2618/2718 35012G21KT P6SM SKC
     FM270000 36006KT P6SM SCT020 BKN120
     FM271400 33010KT P6SM BKN040=



000
FTUS43 KLSX 261700
TAFSUS
TAF
KSUS 261720Z 2618/2718 33011KT P6SM SCT022
     FM270000 33004KT P6SM BKN250
     FM270600 34004KT P6SM SCT020 BKN120
     FM271400 33010KT P6SM BKN040=



000
FTUS43 KLSX 261700
TAFCOU
TAF
KCOU 261720Z 2618/2718 34012KT P6SM SKC
     FM270000 33006KT P6SM BKN250
     FM270300 33006KT P6SM BKN020
     FM271400 33010KT P6SM BKN040=



000
FTUS43 KLSX 261700
TAFSUS
TAF
KSUS 261720Z 2618/2718 33011KT P6SM SCT022
     FM270000 33004KT P6SM BKN250
     FM270600 34004KT P6SM SCT020 BKN120
     FM271400 33010KT P6SM BKN040=



000
FTUS43 KLSX 261400 AAA
TAFSUS
TAF AMD
KSUS 261414Z 2614/2712 34011G20KT P6SM BKN027 OVC110
     FM261600 33010KT P6SM SCT050 BKN120
     FM261800 32012G20KT P6SM SKC
     FM270000 33004KT P6SM BKN250
     FM270600 34004KT P6SM SCT050 BKN120=



000
FTUS43 KLSX 261400 AAA
TAFSTL
TAF AMD
KSTL 261413Z 2614/2718 34011KT P6SM BKN019 OVC150
     FM261600 33012G20KT P6SM SCT025
     FM270000 33006KT P6SM BKN250
     FM270600 34005KT P6SM SCT050 BKN120=



000
FTUS43 KLSX 261100
TAFUIN
TAF
KUIN 261125Z 2612/2712 33012G20KT P6SM SCT250
     FM270000 36006KT P6SM SCT050 BKN120=



000
FTUS43 KLSX 261100
TAFSUS
TAF
KSUS 261125Z 2612/2712 34008KT P6SM BKN015 OVC050
     FM261500 33010KT P6SM SCT050 BKN120
     FM261800 32012G20KT P6SM SKC
     FM270000 33004KT P6SM BKN250
     FM270600 34004KT P6SM SCT050 BKN120=



000
FTUS43 KLSX 261100
TAFSTL
TAF
KSTL 261125Z 2612/2718 33012G20KT P6SM BKN015 OVC050
     FM261500 33012G20KT P6SM SCT050 BKN120
     FM261800 33012G20KT P6SM SKC
     FM270000 33006KT P6SM BKN250
     FM270600 34005KT P6SM SCT050 BKN120
     FM271500 34008KT P6SM SKC=



000
FTUS43 KLSX 261100
TAFCOU
TAF
KCOU 261125Z 2612/2712 34012KT P6SM SCT120 BKN250
     FM261500 33012G20KT P6SM SKC
     FM270000 33006KT P6SM BKN250
     FM270300 33006KT P6SM BKN050=



000
FTUS43 KLSX 260900 AAA
TAFSUS
TAF AMD
KSUS 260914Z 2609/2706 36012G18KT P6SM -RA OVC015
     FM261100 33012KT P6SM SCT060 BKN100
     FM261500 32012KT P6SM SKC
     FM270400 35005KT P6SM SCT050 BKN100=



000
FTUS43 KLSX 260900 AAA
TAFSTL
TAF AMD
KSTL 260912Z 2609/2712 35012KT P6SM -RA OVC015
     FM261100 33012KT P6SM SCT060 BKN100
     FM261500 32012KT P6SM SKC
     FM270400 35005KT P6SM SCT050 BKN100=



000
FTUS43 KLSX 260900 AAA
TAFSTL
TAF AMD
KSTL 260912Z 2609/2712 35012KT P6SM -RA OVC015
     FM261100 33012KT P6SM SCT060 BKN100
     FM261500 32012KT P6SM SKC
     FM270400 35005KT P6SM SCT050 BKN100=



000
FTUS43 KLSX 260700 AAA
TAFCOU
TAF AMD
KCOU 260746Z 2608/2706 02012G20KT P6SM -RA FEW015 SCT025 OVC060
     FM260900 35012KT P6SM SCT060 OVC120
     FM261300 33012KT P6SM SCT120 BKN250
     FM270300 31005KT P6SM BKN050=



000
FTUS43 KLSX 260500
TAFSUS
TAF
KSUS 260530Z 2606/2706 35012KT 3SM -RA BR SCT009 OVC015
      TEMPO 2606/2609 BKN009
     FM261100 33012KT P6SM BKN100
     FM261800 32012KT P6SM SKC
     FM270400 35005KT P6SM SCT050 BKN100=



000
FTUS43 KLSX 260500
TAFUIN
TAF
KUIN 260530Z 2606/2706 34010KT P6SM SCT050 OVC120
     FM261400 33013KT P6SM SKC
     FM270100 34006KT P6SM SCT050 BKN120=



000
FTUS43 KLSX 260500
TAFCOU
TAF
KCOU 260530Z 2606/2706 36013KT 5SM -RA BR SCT009 OVC050
      TEMPO 2606/2609 BKN009
     FM260900 35012KT P6SM SCT050 OVC120
     FM261300 33012KT P6SM SCT120 BKN250
     FM270300 31005KT P6SM BKN050=



000
FTUS43 KLSX 260500
TAFSTL
TAF
KSTL 260530Z 2606/2712 35012KT 3SM -RA BR SCT009 OVC015
      TEMPO 2606/2609 BKN009
     FM261100 33012KT P6SM BKN100
     FM261800 32012KT P6SM SKC
     FM270400 35005KT P6SM SCT050 BKN100=



000
FTUS43 KLSX 260500
TAFSUS
TAF
KSUS 260530Z 2606/2706 35012KT 3SM -RA BR SCT009 OVC015
      TEMPO 2606/2609 BKN009
     FM261100 33012KT P6SM BKN100
     FM261800 32012KT P6SM SKC
     FM270400 35005KT P6SM SCT050 BKN100=



000
FTUS43 KLSX 260500
TAFUIN
TAF
KUIN 260530Z 2606/2706 34010KT P6SM SCT050 OVC120
     FM261400 33013KT P6SM SKC
     FM270100 34006KT P6SM SCT050 BKN120=



000
FTUS43 KLSX 260500
TAFCOU
TAF
KCOU 260530Z 2606/2706 36013KT 5SM -RA BR SCT009 OVC050
      TEMPO 2606/2609 BKN009
     FM260900 35012KT P6SM SCT050 OVC120
     FM261300 33012KT P6SM SCT120 BKN250
     FM270300 31005KT P6SM BKN050=



000
FTUS43 KLSX 260500
TAFSTL
TAF
KSTL 260530Z 2606/2712 35012KT 3SM -RA BR SCT009 OVC015
      TEMPO 2606/2609 BKN009
     FM261100 33012KT P6SM BKN100
     FM261800 32012KT P6SM SKC
     FM270400 35005KT P6SM SCT050 BKN100=



000
FTUS43 KLSX 260300 AAB
TAFSTL
TAF AMD
KSTL 260302Z 2603/2706 03010KT 5SM -RA VCTS SCT009CB BKN070
     FM260400 35012KT 3SM -RA BR SCT009 OVC015
     FM261100 33012KT P6SM BKN100
     FM261800 32012KT P6SM SKC
     FM270400 31005KT P6SM BKN100=



000
FTUS43 KLSX 260300 AAB
TAFSUS
TAF AMD
KSUS 260302Z 2603/2624 02005KT 3SM -TSRA SCT015CB BKN080
     FM260400 35012KT 3SM -RA BR SCT009 OVC015
     FM261100 33012KT P6SM BKN100
     FM261800 32012KT P6SM SKC=



000
FTUS43 KLSX 260300 AAB
TAFCOU
TAF AMD
KCOU 260300Z 2603/2624 36013G21KT 5SM -RA BR OVC009
     FM260900 35012KT P6SM SCT050 OVC120
     FM261300 33010KT P6SM SCT120 BKN250=



000
FTUS43 KLSX 260200 AAA
TAFSTL
TAF AMD
KSTL 260219Z 2602/2706 03010KT 5SM -RA VCTS SCT025CB BKN100
     FM260300 35012KT 3SM -RA BR SCT009 OVC015
     FM261100 33012KT P6SM BKN100
     FM261800 32012KT P6SM SKC
     FM270400 31005KT P6SM BKN100=



000
FTUS43 KLSX 260200 AAA
TAFSUS
TAF AMD
KSUS 260202Z 2602/2624 02005KT 4SM -TSRA SCT015CB BKN080
     FM260300 35012KT 3SM -RA BR SCT009 OVC015
     FM261100 33012KT P6SM BKN100
     FM261800 32012KT P6SM SKC=



000
FTUS43 KLSX 260200 AAA
TAFSUS
TAF AMD
KSUS 260202Z 2602/2624 02005KT 4SM -TSRA SCT015CB BKN080
     FM260300 35012KT 3SM -RA BR SCT009 OVC015
     FM261100 33012KT P6SM BKN100
     FM261800 32012KT P6SM SKC=



000
FTUS43 KLSX 260100 AAA
TAFCOU
TAF AMD
KCOU 260200Z 2602/2624 36015G23KT P6SM -RA SCT015 BKN060
     FM260300 36012KT 4SM -RA BR SCT009 OVC015
     FM260900 35012KT P6SM SCT050 OVC120
     FM261300 33010KT P6SM SCT120 BKN250=



000
FTUS43 KLSX 252300 CCA
TAFUIN
TAF COR
KUIN 252325Z 2600/2624 35008KT P6SM -RA SCT015 BKN100
      TEMPO 2600/2602 BKN015
     FM260600 34010KT P6SM SCT050 OVC120
     FM261400 33013KT P6SM SKC
     FM262200 34006KT P6SM SCT120=



000
FTUS43 KLSX 252300
TAFSUS
TAF
KSUS 252320Z 2600/2624 02010KT P6SM VCSH SCT040 BKN100
     FM260200 35012KT 3SM -RA BR SCT009 OVC015
     FM261100 33012KT P6SM BKN100
     FM261800 32012KT P6SM SKC=



000
FTUS43 KLSX 252300
TAFSTL
TAF
KSTL 252320Z 2600/2706 02010KT P6SM VCSH SCT040 BKN100
     FM260200 35012KT 3SM -RA BR SCT009 OVC015
     FM261100 33012KT P6SM BKN100
     FM261800 32012KT P6SM SKC
     FM270400 31005KT P6SM BKN100=



000
FTUS43 KLSX 252300
TAFUIN
TAF
KUIN 252320Z 2600/2624 35008KT P6SM -RA SCT015 BKN100
     FM260600 34010KT P6SM SCT050 OVC120
     FM261400 33013KT P6SM SKC
     FM262200 34006KT P6SM SCT120=



000
FTUS43 KLSX 252300
TAFCOU
TAF
KCOU 252320Z 2600/2624 04010KT P6SM -RA SCT040 BKN080
     FM260300 36012KT 4SM -RA BR SCT009 OVC015
     FM260900 35012KT P6SM SCT050 OVC120
     FM261300 33010KT P6SM SCT120 BKN250=



000
FTUS43 KLSX 252300
TAFSUS
TAF
KSUS 252320Z 2600/2624 02010KT P6SM VCSH SCT040 BKN100
     FM260200 35012KT 3SM -RA BR SCT009 OVC015
     FM261100 33012KT P6SM BKN100
     FM261800 32012KT P6SM SKC=



000
FTUS43 KLSX 252300
TAFSTL
TAF
KSTL 252320Z 2600/2706 02010KT P6SM VCSH SCT040 BKN100
     FM260200 35012KT 3SM -RA BR SCT009 OVC015
     FM261100 33012KT P6SM BKN100
     FM261800 32012KT P6SM SKC
     FM270400 31005KT P6SM BKN100=



000
FTUS43 KLSX 252300
TAFUIN
TAF
KUIN 252320Z 2600/2624 35008KT P6SM -RA SCT015 BKN100
     FM260600 34010KT P6SM SCT050 OVC120
     FM261400 33013KT P6SM SKC
     FM262200 34006KT P6SM SCT120=



000
FTUS43 KLSX 252300
TAFCOU
TAF
KCOU 252320Z 2600/2624 04010KT P6SM -RA SCT040 BKN080
     FM260300 36012KT 4SM -RA BR SCT009 OVC015
     FM260900 35012KT P6SM SCT050 OVC120
     FM261300 33010KT P6SM SCT120 BKN250=



000
FTUS43 KLSX 252100 AAC
TAFUIN
TAF AMD
KUIN 252159Z 2522/2618 33005KT P6SM BKN015
     FM260000 36012KT P6SM -RA SCT015 OVC025
     FM260600 36012G20KT P6SM SCT050 OVC120
     FM261200 33014G22KT P6SM SKC=



000
FTUS43 KLSX 252100 AAA
TAFSUS
TAF AMD
KSUS 252107Z 2521/2618 36005KT P6SM VCSH OVC100
     FM252230 01008KT 5SM -SHRA VCTS SCT040CB BKN080
     FM260600 35010KT 3SM -RA BR SCT007 OVC015
     FM261200 33010KT P6SM BKN080
     FM261500 32012KT P6SM SKC=



000
FTUS43 KLSX 252100 AAA
TAFSUS
TAF AMD
KSUS 252107Z 2521/2618 36005KT P6SM VCSH OVC100
     FM252230 01008KT 5SM -SHRA VCTS SCT040CB BKN080
     FM260600 35010KT 3SM -RA BR SCT007 OVC015
     FM261200 33010KT P6SM BKN080
     FM261500 32012KT P6SM SKC=



000
FTUS43 KLSX 252100 AAA
TAFSTL
TAF AMD
KSTL 252105Z 2521/2624 04007KT P6SM VCSH SCT070 BKN150 OVC250
     FM260000 02012KT 5SM -SHRA VCTS SCT040CB BKN070
     FM260600 34012KT 3SM -RA BR SCT007 OVC015
     FM261200 33012KT P6SM BKN080
     FM261500 32012KT P6SM SKC=



000
FTUS43 KLSX 252100 AAA
TAFSTL
TAF AMD
KSTL 252105Z 2521/2624 04007KT P6SM VCSH SCT070 BKN150 OVC250
     FM260000 02012KT 5SM -SHRA VCTS SCT040CB BKN070
     FM260600 34012KT 3SM -RA BR SCT007 OVC015
     FM261200 33012KT P6SM BKN080
     FM261500 32012KT P6SM SKC=



000
FTUS43 KLSX 252100 AAB
TAFUIN
TAF AMD
KUIN 252103Z 2521/2618 04005KT P6SM SCT010 OVC200
     FM260000 36012KT P6SM -RA SCT015 OVC025
     FM260600 36012G20KT P6SM SCT050 OVC120
     FM261200 33014G22KT P6SM SKC=



000
FTUS43 KLSX 252100 AAB
TAFUIN
TAF AMD
KUIN 252103Z 2521/2618 04005KT P6SM SCT010 OVC200
     FM260000 36012KT P6SM -RA SCT015 OVC025
     FM260600 36012G20KT P6SM SCT050 OVC120
     FM261200 33014G22KT P6SM SKC=



000
FTUS43 KLSX 252000 AAA
TAFCOU
TAF AMD
KCOU 252011Z 2520/2618 04008KT P6SM FEW080 OVC250
     FM252200 02010KT 5SM -SHRA VCTS SCT040CB BKN080
     FM260300 01012KT 4SM -RA BR SCT007 OVC015
     FM260900 35012KT P6SM SCT050 OVC120=



000
FTUS43 KLSX 252000 AAA
TAFUIN
TAF AMD
KUIN 252009Z 2520/2618 36008KT P6SM BKN010
     FM260000 36012KT P6SM -RA SCT015 OVC025
     FM260600 36012G20KT P6SM SCT050 OVC120
     FM261200 33014G22KT P6SM SKC=



000
FTUS43 KLSX 251700
TAFSUS
TAF
KSUS 251731Z 2518/2618 34006KT P6SM FEW020 SCT150 BKN250
     FM252100 04005KT P6SM SCT150 BKN250
     FM260000 01010KT 5SM -SHRA VCTS SCT040CB BKN080
     FM260600 35010KT 3SM -RA BR SCT007 OVC015
     FM261200 33010KT P6SM BKN080
     FM261500 32012KT P6SM SKC=



000
FTUS43 KLSX 251700
TAFSTL
TAF
KSTL 251731Z 2518/2624 34005KT P6SM FEW015 SCT150 BKN250
     FM252100 04007KT P6SM SCT150 BKN250
     FM260000 02012KT 5SM -SHRA VCTS SCT040CB BKN080
     FM260600 34012KT 3SM -RA BR SCT007 OVC015
     FM261200 33012KT P6SM BKN080
     FM261500 32012KT P6SM SKC=



000
FTUS43 KLSX 251700
TAFCOU
TAF
KCOU 251731Z 2518/2618 32005KT P6SM FEW040 BKN250
     FM252200 02010KT 5SM -SHRA VCTS SCT040CB BKN080
     FM260300 01012KT 4SM -RA BR SCT007 OVC015
     FM260900 35012KT P6SM SCT050 OVC120=



000
FTUS43 KLSX 251700
TAFUIN
TAF
KUIN 251731Z 2518/2618 27008KT P6SM OVC008
     FM252100 34008KT P6SM BKN010
     FM260000 36012KT P6SM -RA SCT015 OVC025
     FM260600 36012G20KT P6SM SCT050 OVC120
     FM261200 33014G22KT P6SM SKC=



000
FTUS43 KLSX 251500 AAA
TAFSUS
TAF AMD
KSUS 251507Z 2515/2612 27006KT P6SM BKN015
     FM251600 VRB05KT P6SM SCT015 BKN250
     FM260000 06012KT 5SM -SHRA VCTS SCT015 BKN050CB
     FM260600 36015KT 3SM -RA BR SCT007 OVC015=



000
FTUS43 KLSX 251500 AAA
TAFSTL
TAF AMD
KSTL 251507Z 2515/2618 26008KT P6SM BKN011
     FM251600 VRB05KT P6SM SCT015 BKN150
     FM260000 06012KT 5SM -SHRA VCTS SCT015 BKN050CB
     FM260600 36015KT 3SM -RA BR SCT007 OVC015
     FM261500 33012KT P6SM OVC025=



000
FTUS43 KLSX 251500 AAA
TAFSUS
TAF AMD
KSUS 251507Z 2515/2612 27006KT P6SM BKN015
     FM251600 VRB05KT P6SM SCT015 BKN250
     FM260000 06012KT 5SM -SHRA VCTS SCT015 BKN050CB
     FM260600 36015KT 3SM -RA BR SCT007 OVC015=



000
FTUS43 KLSX 251500 AAA
TAFSTL
TAF AMD
KSTL 251507Z 2515/2618 26008KT P6SM BKN011
     FM251600 VRB05KT P6SM SCT015 BKN150
     FM260000 06012KT 5SM -SHRA VCTS SCT015 BKN050CB
     FM260600 36015KT 3SM -RA BR SCT007 OVC015
     FM261500 33012KT P6SM OVC025=



000
FTUS43 KLSX 251500 AAA
TAFCOU
TAF AMD
KCOU 251503Z 2515/2612 31005KT P6SM BKN006
     FM251600 VRB05KT P6SM SCT010 BKN250
     FM251800 04008KT P6SM FEW030 SCT250
     FM252200 02013KT 5SM -SHRA VCTS SCT015 OVC050CB
     FM260300 36015KT 4SM -RA BR SCT007 OVC015=



000
FTUS43 KLSX 251500 AAA
TAFCOU
TAF AMD
KCOU 251503Z 2515/2612 31005KT P6SM BKN006
     FM251600 VRB05KT P6SM SCT010 BKN250
     FM251800 04008KT P6SM FEW030 SCT250
     FM252200 02013KT 5SM -SHRA VCTS SCT015 OVC050CB
     FM260300 36015KT 4SM -RA BR SCT007 OVC015=



000
FTUS43 KLSX 251100
TAFUIN
TAF
KUIN 251120Z 2512/2612 29010KT P6SM OVC008
     FM251900 36010KT P6SM BKN015
     FM260300 36014KT P6SM -RA OVC025
     FM260600 34014KT P6SM OVC050=



000
FTUS43 KLSX 251100
TAFSTL
TAF
KSTL 251120Z 2512/2618 26008KT P6SM OVC015
     FM251600 VRB05KT P6SM SCT015 BKN250
     FM260000 06012KT 5SM -SHRA VCTS SCT015 BKN050CB
     FM260600 36015KT 3SM -RA BR SCT007 OVC015
     FM261500 33012KT P6SM OVC025=



000
FTUS43 KLSX 251100
TAFSUS
TAF
KSUS 251120Z 2512/2612 27006KT P6SM OVC015
     FM251600 VRB05KT P6SM SCT015 BKN250
     FM260000 06012KT 5SM -SHRA VCTS SCT015 BKN050CB
     FM260600 36015KT 3SM -RA BR SCT007 OVC015=



000
FTUS43 KLSX 251100
TAFCOU
TAF
KCOU 251120Z 2512/2612 27010KT P6SM BKN008
      TEMPO 2512/2515 SCT008
     FM251500 VRB05KT P6SM SCT010 BKN250
     FM251800 04008KT P6SM FEW030 SCT250
     FM252200 02013KT 5SM -SHRA VCTS SCT015 OVC050CB
     FM260300 36015KT 4SM -RA BR SCT007 OVC015=



000
FTUS43 KLSX 250800 AAB
TAFSUS
TAF AMD
KSUS 250826Z 2508/2606 27006KT 5SM BR OVC010
     FM251700 VRB04KT P6SM SCT025 SCT250
     FM260000 06012KT 5SM -SHRA VCTS SCT015 BKN050CB=



000
FTUS43 KLSX 250800 AAB
TAFSTL
TAF AMD
KSTL 250825Z 2508/2612 26008KT 4SM BR OVC010
     FM251700 VRB04KT P6SM SCT025 SCT250
     FM260000 06012KT 5SM -SHRA VCTS SCT015 BKN050CB
     FM260600 36015G25KT 3SM -RA BR SCT007 OVC015=



000
FTUS43 KLSX 250700 AAA
TAFSUS
TAF AMD
KSUS 250737Z 2508/2606 24008KT 3SM BR OVC020
     FM251700 VRB04KT P6SM SCT025 SCT250
     FM260000 06012KT 5SM -SHRA VCTS SCT015 BKN050CB=



000
FTUS43 KLSX 250700 AAA
TAFSTL
TAF AMD
KSTL 250736Z 2508/2612 24008KT 3SM BR OVC020
     FM251700 VRB04KT P6SM SCT025 SCT250
     FM260000 06012KT 5SM -SHRA VCTS SCT015 BKN050CB
     FM260600 36015G25KT 3SM -RA BR SCT007 OVC015=



000
FTUS43 KLSX 250700 AAB
TAFCOU
TAF AMD
KCOU 250732Z 2508/2606 28012KT P6SM OVC010
     FM251500 VRB03KT P6SM BKN015
     FM251800 04008KT P6SM SCT015 SCT120
     FM252200 02013KT 5SM -SHRA VCTS SCT015 OVC050CB
     FM260300 36015G25KT 4SM -RA BR OVC015=



000
FTUS43 KLSX 250700 AAB
TAFUIN
TAF AMD
KUIN 250725Z 2507/2606 26012KT 5SM BR OVC007
     FM251900 36010KT P6SM BKN015
     FM260300 36015KT P6SM -RA OVC015=



000
FTUS43 KLSX 250700 AAB
TAFUIN
TAF AMD
KUIN 250725Z 2507/2606 26012KT 5SM BR OVC007
     FM251900 36010KT P6SM BKN015
     FM260300 36015KT P6SM -RA OVC015=



000
FTUS43 KLSX 250600 AAA
TAFUIN
TAF AMD
KUIN 250604Z 2506/2606 26009KT 3SM BR VV002
     FM251600 22008KT P6SM BKN250
     FM252100 36006KT P6SM BKN120
     FM260200 35009KT P6SM VCSH OVC050=



000
FTUS43 KLSX 250600 AAA
TAFCOU
TAF AMD
KCOU 250604Z 2506/2606 28006KT 5SM BR OVC008
     FM251600 VRB03KT P6SM BKN250
     FM252100 04008KT P6SM BKN120
     FM260100 02013KT 4SM -TSRA SCT007 OVC012CB=



000
FTUS43 KLSX 250600 AAA
TAFCOU
TAF AMD
KCOU 250604Z 2506/2606 28006KT 5SM BR OVC008
     FM251600 VRB03KT P6SM BKN250
     FM252100 04008KT P6SM BKN120
     FM260100 02013KT 4SM -TSRA SCT007 OVC012CB=



000
FTUS43 KLSX 250600 AAA
TAFUIN
TAF AMD
KUIN 250604Z 2506/2606 26009KT 3SM BR VV002
     FM251600 22008KT P6SM BKN250
     FM252100 36006KT P6SM BKN120
     FM260200 35009KT P6SM VCSH OVC050=



000
FTUS43 KLSX 250500
TAFSTL
TAF
KSTL 250530Z 2506/2612 24008KT 5SM BR BKN009
      TEMPO 2506/2507 SCT009 BKN025
     FM250700 27009KT 4SM BR SCT005 OVC008
     FM251700 VRB04KT P6SM BKN250
     FM260000 06012KT P6SM SCT040 OVC100
      TEMPO 2602/2605 3SM SHRA SCT012 OVC040
     FM260500 36010KT 3SM -TSRA BR SCT007 OVC012CB=



000
FTUS43 KLSX 250500
TAFSTL
TAF
KSTL 250530Z 2506/2612 24008KT 5SM BR BKN009
      TEMPO 2506/2507 SCT009 BKN025
     FM250700 27009KT 4SM BR SCT005 OVC008
     FM251700 VRB04KT P6SM BKN250
     FM260000 06012KT P6SM SCT040 OVC100
      TEMPO 2602/2605 3SM SHRA SCT012 OVC040
     FM260500 36010KT 3SM -TSRA BR SCT007 OVC012CB=



000
FTUS43 KLSX 250500
TAFSUS
TAF
KSUS 250530Z 2506/2606 VRB06KT 5SM BR BKN009
      TEMPO 2506/2507 SCT009 BKN025
     FM250700 27009KT 4SM BR SCT005 OVC008
     FM251700 VRB04KT P6SM BKN250
     FM260000 06012KT P6SM SCT040 OVC100
      TEMPO 2602/2605 3SM SHRA SCT012 OVC040
     FM260500 36010KT 3SM -TSRA BR SCT007 OVC012CB=



000
FTUS43 KLSX 250500
TAFUIN
TAF
KUIN 250530Z 2506/2606 28009KT 4SM BR SCT005 BKN008
     FM251600 22008KT P6SM BKN250
     FM252100 36006KT P6SM BKN120
     FM260200 35009KT P6SM VCSH OVC050=



000
FTUS43 KLSX 250500
TAFCOU
TAF
KCOU 250530Z 2506/2606 28006KT 5SM BR SCT005 BKN010
     FM251600 VRB03KT P6SM BKN250
     FM252100 04008KT P6SM BKN120
     FM260100 02013KT 4SM -TSRA SCT007 OVC012CB=



000
FTUS43 KLSX 250500
TAFUIN
TAF
KUIN 250530Z 2506/2606 28009KT 4SM BR SCT005 BKN008
     FM251600 22008KT P6SM BKN250
     FM252100 36006KT P6SM BKN120
     FM260200 35009KT P6SM VCSH OVC050=



000
FTUS43 KLSX 250500
TAFSUS
TAF
KSUS 250530Z 2506/2606 VRB06KT 5SM BR BKN009
      TEMPO 2506/2507 SCT009 BKN025
     FM250700 27009KT 4SM BR SCT005 OVC008
     FM251700 VRB04KT P6SM BKN250
     FM260000 06012KT P6SM SCT040 OVC100
      TEMPO 2602/2605 3SM SHRA SCT012 OVC040
     FM260500 36010KT 3SM -TSRA BR SCT007 OVC012CB=



000
FTUS43 KLSX 250500
TAFCOU
TAF
KCOU 250530Z 2506/2606 28006KT 5SM BR SCT005 BKN010
     FM251600 VRB03KT P6SM BKN250
     FM252100 04008KT P6SM BKN120
     FM260100 02013KT 4SM -TSRA SCT007 OVC012CB=



000
FTUS43 KLSX 250400 AAC
TAFSUS
TAF AMD
KSUS 250402Z 2504/2524 VRB05KT 5SM BR SCT009 OVC050
      TEMPO 2504/2505 BKN009
     FM250500 23012KT P6SM BKN015
     FM250900 28009KT 4SM BR SCT015
     FM251500 25005KT P6SM BKN250
     FM252300 04010KT P6SM SCT040 BKN080=



000
FTUS43 KLSX 250300 AAA
TAFCOU
TAF AMD
KCOU 250314Z 2503/2524 31012KT 6SM BR BKN030
     FM250600 28009KT 5SM BR BKN010
     FM251400 18006KT P6SM BKN250
     FM252100 04008KT P6SM BKN120=



000
FTUS43 KLSX 250300 AAB
TAFSUS
TAF AMD
KSUS 250310Z 2503/2524 13014G24KT 5SM -SHRA BKN030 OVC060
      TEMPO 2503/2504 2SM +TSRA OVC010CB
     FM250500 23012G21KT P6SM BKN015
     FM250900 28009KT 4SM BR SCT015
     FM251500 25005KT P6SM BKN250
     FM252300 04010KT P6SM SCT040 BKN080=



000
FTUS43 KLSX 250300 AAB
TAFSUS
TAF AMD
KSUS 250310Z 2503/2524 13014G24KT 5SM -SHRA BKN030 OVC060
      TEMPO 2503/2504 2SM +TSRA OVC010CB
     FM250500 23012G21KT P6SM BKN015
     FM250900 28009KT 4SM BR SCT015
     FM251500 25005KT P6SM BKN250
     FM252300 04010KT P6SM SCT040 BKN080=



000
FTUS43 KLSX 250300 AAB
TAFUIN
TAF AMD
KUIN 250307Z 2503/2524 12012G20KT 5SM -SHRA BR BKN020 OVC040
      TEMPO 2503/2504 2SM +TSRA OVC010CB
     FM250400 28010G18KT 5SM BR BKN010
     FM251500 22008KT P6SM BKN250
     FM252100 32008KT P6SM BKN120=



000
FTUS43 KLSX 250300 AAB
TAFUIN
TAF AMD
KUIN 250307Z 2503/2524 12012G20KT 5SM -SHRA BR BKN020 OVC040
      TEMPO 2503/2504 2SM +TSRA OVC010CB
     FM250400 28010G18KT 5SM BR BKN010
     FM251500 22008KT P6SM BKN250
     FM252100 32008KT P6SM BKN120=



000
FTUS43 KLSX 250300 AAB
TAFSTL
TAF AMD
KSTL 250303Z 2503/2606 13014G24KT 5SM -SHRA BKN030 OVC060
      TEMPO 2503/2504 2SM +TSRA OVC010CB
     FM250500 23012G21KT P6SM BKN015
     FM250900 28009KT 4SM BR SCT015
     FM251500 25005KT P6SM BKN250
     FM252300 04010KT P6SM SCT040 BKN080
      TEMPO 2603/2606 3SM SHRA=



000
FTUS43 KLSX 250000 AAA
TAFUIN
TAF AMD
KUIN 250052Z 2501/2524 13013G21KT 5SM -SHRA BR BKN025 OVC060
      TEMPO 2501/2503 2SM +TSRA OVC010CB
     FM250400 26012G20KT 5SM BR BKN010
     FM251500 22008KT P6SM BKN250
     FM252100 32008KT P6SM BKN120=



000
FTUS43 KLSX 250000 AAA
TAFUIN
TAF AMD
KUIN 250052Z 2501/2524 13013G21KT 5SM -SHRA BR BKN025 OVC060
      TEMPO 2501/2503 2SM +TSRA OVC010CB
     FM250400 26012G20KT 5SM BR BKN010
     FM251500 22008KT P6SM BKN250
     FM252100 32008KT P6SM BKN120=



000
FTUS43 KLSX 250000 AAA
TAFSUS
TAF AMD
KSUS 250049Z 2501/2524 13013G22KT 5SM -SHRA BKN025 OVC060
      TEMPO 2501/2503 2SM +TSRA OVC010CB
     FM250400 23013G22KT P6SM BKN020
     FM250900 27010KT 5SM BR SCT020
     FM251500 25005KT P6SM BKN250
     FM252300 04010KT P6SM SCT040 BKN080=



000
FTUS43 KLSX 250000 AAA
TAFSUS
TAF AMD
KSUS 250049Z 2501/2524 13013G22KT 5SM -SHRA BKN025 OVC060
      TEMPO 2501/2503 2SM +TSRA OVC010CB
     FM250400 23013G22KT P6SM BKN020
     FM250900 27010KT 5SM BR SCT020
     FM251500 25005KT P6SM BKN250
     FM252300 04010KT P6SM SCT040 BKN080=



000
FTUS43 KLSX 250000 AAA
TAFSTL
TAF AMD
KSTL 250048Z 2501/2606 13013G22KT 5SM -SHRA BKN025 OVC060
      TEMPO 2501/2503 2SM +TSRA OVC010CB
     FM250400 23013G22KT P6SM BKN020
     FM250900 27010KT 5SM BR SCT020
     FM251500 25005KT P6SM BKN250
     FM252300 04010KT P6SM SCT040 BKN080
      TEMPO 2603/2606 3SM SHRA=



000
FTUS43 KLSX 250000 AAA
TAFSTL
TAF AMD
KSTL 250048Z 2501/2606 13013G22KT 5SM -SHRA BKN025 OVC060
      TEMPO 2501/2503 2SM +TSRA OVC010CB
     FM250400 23013G22KT P6SM BKN020
     FM250900 27010KT 5SM BR SCT020
     FM251500 25005KT P6SM BKN250
     FM252300 04010KT P6SM SCT040 BKN080
      TEMPO 2603/2606 3SM SHRA=



000
FTUS43 KLSX 242300 RRA
TAFSTL
TAF
KSTL 242341Z 2500/2606 13013G22KT 6SM HZ SCT015 BKN040
     FM250200 14013G22KT 5SM -SHRA BKN020
      TEMPO 2502/2504 2SM +TSRA OVC010CB
     FM250500 23013G22KT P6SM BKN020
     FM250900 27010KT 5SM BR SCT020
     FM251500 25005KT P6SM BKN250
     FM252300 04010KT P6SM SCT040 BKN080
      TEMPO 2603/2606 3SM SHRA=



000
FTUS43 KLSX 242300 RRA
TAFSTL
TAF
KSTL 242341Z 2500/2606 13013G22KT 6SM HZ SCT015 BKN040
     FM250200 14013G22KT 5SM -SHRA BKN020
      TEMPO 2502/2504 2SM +TSRA OVC010CB
     FM250500 23013G22KT P6SM BKN020
     FM250900 27010KT 5SM BR SCT020
     FM251500 25005KT P6SM BKN250
     FM252300 04010KT P6SM SCT040 BKN080
      TEMPO 2603/2606 3SM SHRA=



000
FTUS43 KLSX 242300 RRA
TAFUIN
TAF
KUIN 242341Z 2500/2524 11015G22KT 5SM HZ OVC010
     FM250200 13013G21KT 5SM -SHRA OVC010
      TEMPO 2502/2504 2SM +TSRA OVC005CB
     FM250500 26012G20KT 5SM BR BKN010
     FM251500 22008KT P6SM BKN250
     FM252100 32008KT P6SM BKN120=



000
FTUS43 KLSX 242300 RRA
TAFSUS
TAF
KSUS 242341Z 2500/2524 13013G22KT 6SM HZ SCT015 BKN040
     FM250200 14013G22KT 5SM -SHRA BKN020
      TEMPO 2502/2504 2SM +TSRA OVC010CB
     FM250500 23013G22KT P6SM BKN020
     FM250900 27010KT 5SM BR SCT020
     FM251500 25005KT P6SM BKN250
     FM252300 04010KT P6SM SCT040 BKN080=



000
FTUS43 KLSX 242300 RRA
TAFCOU
TAF
KCOU 242341Z 2500/2524 12013G22KT 5SM -SHRA BKN025 OVC080
      TEMPO 2500/2502 VRB20G35KT 1SM +TSRA OVC010CB
     FM250300 24013G22KT P6SM BKN025
     FM250600 26011KT 5SM BR SCT020
     FM251500 18006KT P6SM BKN250
     FM252100 04008KT P6SM BKN120=



000
FTUS43 KLSX 242300 RRA
TAFUIN
TAF
KUIN 242341Z 2500/2524 11015G22KT 5SM HZ OVC010
     FM250200 13013G21KT 5SM -SHRA OVC010
      TEMPO 2502/2504 2SM +TSRA OVC005CB
     FM250500 26012G20KT 5SM BR BKN010
     FM251500 22008KT P6SM BKN250
     FM252100 32008KT P6SM BKN120=



000
FTUS43 KLSX 242300 RRA
TAFSUS
TAF
KSUS 242341Z 2500/2524 13013G22KT 6SM HZ SCT015 BKN040
     FM250200 14013G22KT 5SM -SHRA BKN020
      TEMPO 2502/2504 2SM +TSRA OVC010CB
     FM250500 23013G22KT P6SM BKN020
     FM250900 27010KT 5SM BR SCT020
     FM251500 25005KT P6SM BKN250
     FM252300 04010KT P6SM SCT040 BKN080=



000
FTUS43 KLSX 242300 RRA
TAFCOU
TAF
KCOU 242341Z 2500/2524 12013G22KT 5SM -SHRA BKN025 OVC080
      TEMPO 2500/2502 VRB20G35KT 1SM +TSRA OVC010CB
     FM250300 24013G22KT P6SM BKN025
     FM250600 26011KT 5SM BR SCT020
     FM251500 18006KT P6SM BKN250
     FM252100 04008KT P6SM BKN120=



000
FTUS43 KLSX 242200 AAB
TAFSUS
TAF AMD
KSUS 242234Z 2423/2518 12015G22KT P6SM BKN010
     FM250300 15013G22KT 5SM -SHRA OVC015
      TEMPO 2503/2505 2SM TSRA OVC006CB
     FM250600 24012G21KT P6SM BKN015
     FM250900 26009KT 4SM BR SCT015
     FM251500 23005KT P6SM SCT250=



000
FTUS43 KLSX 242000 AAA
TAFCOU
TAF AMD
KCOU 242051Z 2421/2518 12013G21KT P6SM SCT010 OVC040
      TEMPO 2421/2422 BKN010
     FM250000 14012G22KT 5SM -SHRA OVC015
      TEMPO 2500/2502 2SM TSRA OVC006CB
     FM250300 18012G22KT P6SM BKN015
     FM250600 26011KT 5SM BR SCT015
     FM251500 17005KT P6SM SCT250=



000
FTUS43 KLSX 242000 AAA
TAFCOU
TAF AMD
KCOU 242051Z 2421/2518 12013G21KT P6SM SCT010 OVC040
      TEMPO 2421/2422 BKN010
     FM250000 14012G22KT 5SM -SHRA OVC015
      TEMPO 2500/2502 2SM TSRA OVC006CB
     FM250300 18012G22KT P6SM BKN015
     FM250600 26011KT 5SM BR SCT015
     FM251500 17005KT P6SM SCT250=



000
FTUS43 KLSX 242000 AAA
TAFSUS
TAF AMD
KSUS 242040Z 2421/2518 12015G22KT P6SM SCT010 BKN080
      TEMPO 2421/2422 BKN010
     FM250300 15013G22KT 5SM -SHRA OVC015
      TEMPO 2503/2505 2SM TSRA OVC006CB
     FM250600 24012G21KT P6SM BKN015
     FM250900 26009KT 4SM BR SCT015
     FM251500 23005KT P6SM SCT250=



000
FTUS43 KLSX 242000 AAA
TAFSUS
TAF AMD
KSUS 242040Z 2421/2518 12015G22KT P6SM SCT010 BKN080
      TEMPO 2421/2422 BKN010
     FM250300 15013G22KT 5SM -SHRA OVC015
      TEMPO 2503/2505 2SM TSRA OVC006CB
     FM250600 24012G21KT P6SM BKN015
     FM250900 26009KT 4SM BR SCT015
     FM251500 23005KT P6SM SCT250=



000
FTUS43 KLSX 242000 AAA
TAFSTL
TAF AMD
KSTL 242039Z 2421/2524 12016G23KT 4SM HZ SCT010 BKN080
      TEMPO 2421/2422 BKN010
     FM242200 12015G23KT P6SM SCT015 BKN080
     FM250300 15013G22KT 5SM -SHRA OVC015
      TEMPO 2503/2505 2SM TSRA OVC006CB
     FM250600 24013G22KT P6SM BKN015
     FM250900 26010KT 5SM BR SCT015
     FM251500 23005KT P6SM SCT250
     FM252100 14006KT P6SM SCT100 BKN250=



000
FTUS43 KLSX 242000 AAA
TAFSTL
TAF AMD
KSTL 242039Z 2421/2524 12016G23KT 4SM HZ SCT010 BKN080
      TEMPO 2421/2422 BKN010
     FM242200 12015G23KT P6SM SCT015 BKN080
     FM250300 15013G22KT 5SM -SHRA OVC015
      TEMPO 2503/2505 2SM TSRA OVC006CB
     FM250600 24013G22KT P6SM BKN015
     FM250900 26010KT 5SM BR SCT015
     FM251500 23005KT P6SM SCT250
     FM252100 14006KT P6SM SCT100 BKN250=



000
FTUS43 KLSX 241700
TAFUIN
TAF
KUIN 241739Z 2418/2518 10015G23KT 5SM BR OVC008
     FM242100 11015G24KT P6SM OVC010
     FM250200 13013G22KT 5SM -SHRA OVC010
      TEMPO 2502/2504 2SM TSRA OVC006CB
     FM250500 25012G20KT P6SM BKN010
     FM250900 27010KT 5SM BR SCT015
     FM251500 21007KT P6SM SCT250=



000
FTUS43 KLSX 241700
TAFCOU
TAF
KCOU 241739Z 2418/2518 13014G22KT P6SM BKN008
     FM242100 12014G22KT P6SM BKN015
     FM250000 14012G22KT 5SM -SHRA OVC015
      TEMPO 2500/2502 2SM TSRA OVC006CB
     FM250300 18012G22KT P6SM BKN015
     FM250600 26011KT 5SM BR SCT015
     FM251500 17005KT P6SM SCT250=



000
FTUS43 KLSX 241700
TAFSTL
TAF
KSTL 241739Z 2418/2524 12013G22KT 4SM BR OVC007
      TEMPO 2418/2419 -SHRA
     FM242100 12014G23KT P6SM OVC015
     FM250300 15013G22KT 5SM -SHRA OVC015
      TEMPO 2503/2505 2SM TSRA OVC006CB
     FM250600 24013G22KT P6SM BKN015
     FM250900 26010KT 5SM BR SCT015
     FM251500 23005KT P6SM SCT250
     FM252100 14006KT P6SM SCT100 BKN250=



000
FTUS43 KLSX 241700
TAFUIN
TAF
KUIN 241739Z 2418/2518 10015G23KT 5SM BR OVC008
     FM242100 11015G24KT P6SM OVC010
     FM250200 13013G22KT 5SM -SHRA OVC010
      TEMPO 2502/2504 2SM TSRA OVC006CB
     FM250500 25012G20KT P6SM BKN010
     FM250900 27010KT 5SM BR SCT015
     FM251500 21007KT P6SM SCT250=



000
FTUS43 KLSX 241700
TAFSUS
TAF
KSUS 241739Z 2418/2518 12013G22KT 4SM BR OVC007
      TEMPO 2418/2419 -SHRA
     FM242100 12014G23KT P6SM OVC015
     FM250300 15013G22KT 5SM -SHRA OVC015
      TEMPO 2503/2505 2SM TSRA OVC006CB
     FM250600 24013G22KT P6SM BKN015
     FM250900 26010KT 5SM BR SCT015
     FM251500 23005KT P6SM SCT250=



000
FTUS43 KLSX 241700
TAFSUS
TAF
KSUS 241739Z 2418/2518 12013G22KT 4SM BR OVC007
      TEMPO 2418/2419 -SHRA
     FM242100 12014G23KT P6SM OVC015
     FM250300 15013G22KT 5SM -SHRA OVC015
      TEMPO 2503/2505 2SM TSRA OVC006CB
     FM250600 24013G22KT P6SM BKN015
     FM250900 26010KT 5SM BR SCT015
     FM251500 23005KT P6SM SCT250=



000
FTUS43 KLSX 241700
TAFCOU
TAF
KCOU 241739Z 2418/2518 13014G22KT P6SM BKN008
     FM242100 12014G22KT P6SM BKN015
     FM250000 14012G22KT 5SM -SHRA OVC015
      TEMPO 2500/2502 2SM TSRA OVC006CB
     FM250300 18012G22KT P6SM BKN015
     FM250600 26011KT 5SM BR SCT015
     FM251500 17005KT P6SM SCT250=



000
FTUS43 KLSX 241700
TAFSTL
TAF
KSTL 241739Z 2418/2524 12013G22KT 4SM BR OVC007
      TEMPO 2418/2419 -SHRA
     FM242100 12014G23KT P6SM OVC015
     FM250300 15013G22KT 5SM -SHRA OVC015
      TEMPO 2503/2505 2SM TSRA OVC006CB
     FM250600 24013G22KT P6SM BKN015
     FM250900 26010KT 5SM BR SCT015
     FM251500 23005KT P6SM SCT250
     FM252100 14006KT P6SM SCT100 BKN250=



000
FTUS43 KLSX 241600 AAA
TAFSUS
TAF AMD
KSUS 241619Z 2416/2512 12011KT 5SM -RA BR BKN007 OVC040
     FM241800 12013G22KT P6SM BKN015
      TEMPO 2503/2505 3SM TSRA OVC015CB
     FM250600 26015G22KT P6SM SCT020=



000
FTUS43 KLSX 241600 AAB
TAFSTL
TAF AMD
KSTL 241619Z 2416/2518 12011KT 4SM -RA BR BKN007 OVC040
     FM241800 12013G22KT P6SM BKN015
      TEMPO 2503/2505 3SM TSRA OVC015CB
     FM250600 26015G22KT P6SM SCT020=



000
FTUS43 KLSX 241600 AAA
TAFUIN
TAF AMD
KUIN 241617Z 2416/2512 09012KT 4SM BR OVC008
      TEMPO 2416/2418 -FZRA
     FM241800 10013G22KT P6SM -RA OVC010
     FM250300 17013G22KT 5SM -RA OVC015
     FM250700 26013G22KT P6SM SCT015=



000
FTUS43 KLSX 241600 AAB
TAFCOU
TAF AMD
KCOU 241615Z 2416/2512 11014G22KT 4SM BR OVC005
     FM241800 12014G22KT P6SM OVC020
     FM250000 14012G22KT P6SM BKN030
      TEMPO 2500/2502 3SM TSRA OVC020CB
     FM250200 25012G22KT P6SM SCT020=



000
FTUS43 KLSX 241400 AAA
TAFSTL
TAF AMD
KSTL 241452Z 2415/2518 09011KT 4SM -RA BR BKN006
     FM241700 11013G22KT P6SM BKN015
      TEMPO 2503/2505 3SM TSRA OVC015CB
     FM250600 26015G22KT P6SM SCT020=



000
FTUS43 KLSX 241400 AAA
TAFSTL
TAF AMD
KSTL 241452Z 2415/2518 09011KT 4SM -RA BR BKN006
     FM241700 11013G22KT P6SM BKN015
      TEMPO 2503/2505 3SM TSRA OVC015CB
     FM250600 26015G22KT P6SM SCT020=



000
FTUS43 KLSX 241200 AAA
TAFCOU
TAF AMD
KCOU 241204Z 2412/2512 05012G22KT 5SM -RA OVC005
     FM241600 10013G22KT P6SM OVC030
     FM250000 14012G22KT P6SM BKN030
      TEMPO 2500/2502 3SM TSRA OVC020CB
     FM250200 25012G22KT P6SM SCT020=



000
FTUS43 KLSX 241200 AAA
TAFCOU
TAF AMD
KCOU 241204Z 2412/2512 05012G22KT 5SM -RA OVC005
     FM241600 10013G22KT P6SM OVC030
     FM250000 14012G22KT P6SM BKN030
      TEMPO 2500/2502 3SM TSRA OVC020CB
     FM250200 25012G22KT P6SM SCT020=



000
FTUS43 KLSX 241100
TAFSTL
TAF
KSTL 241120Z 2412/2518 08011KT 4SM -SHRA VCTS OVC009CB
     FM241700 11013G22KT P6SM BKN015
      TEMPO 2503/2505 3SM TSRA OVC015CB
     FM250600 26015G22KT P6SM SCT020=



000
FTUS43 KLSX 241100
TAFCOU
TAF
KCOU 241120Z 2412/2512 05012G22KT 5SM -SHRA VCTS OVC015CB
     FM241600 10013G22KT P6SM OVC030
     FM250000 14012G22KT P6SM BKN030
      TEMPO 2500/2502 3SM TSRA OVC020CB
     FM250200 25012G22KT P6SM SCT020=



000
FTUS43 KLSX 241100
TAFSUS
TAF
KSUS 241120Z 2412/2512 08011KT 4SM -SHRA VCTS OVC009CB
     FM241700 11013G22KT P6SM BKN015
      TEMPO 2503/2505 3SM TSRA OVC015CB
     FM250600 26015G22KT P6SM SCT020=



000
FTUS43 KLSX 241100
TAFUIN
TAF
KUIN 241120Z 2412/2512 08012KT 4SM -FZRA OVC009
     FM241800 10013G22KT P6SM -RA OVC010
     FM250300 17013G22KT 5SM -RA OVC015
     FM250700 26013G22KT P6SM SCT015=



000
FTUS43 KLSX 241000 AAB
TAFSUS
TAF AMD
KSUS 241044Z 2411/2506 07011KT P6SM -RA OVC011
     FM241300 09011KT 4SM -SHRA VCTS OVC015CB
     FM241700 11013KT P6SM BKN025
     FM250300 16013KT P6SM BKN020
      TEMPO 2503/2505 3SM TSRA OVC015CB=



000
FTUS43 KLSX 241000 AAD
TAFSTL
TAF AMD
KSTL 241043Z 2411/2512 06010KT P6SM VCSH OVC008
     FM241100 08011KT 4SM -SHRA VCTS OVC010CB
     FM241700 11013KT P6SM BKN025
     FM250300 16014KT P6SM BKN020
      TEMPO 2503/2505 3SM TSRA OVC015CB
     FM250600 26010KT P6SM SCT020 BKN250=



000
FTUS43 KLSX 240900 AAC
TAFSTL
TAF AMD
KSTL 240934Z 2410/2512 06011KT P6SM OVC008
     FM241100 08011KT 4SM -SHRA VCTS OVC010CB
     FM241700 11013KT P6SM BKN025
     FM250300 16014KT P6SM BKN020
      TEMPO 2503/2505 3SM TSRA OVC015CB
     FM250600 26010KT P6SM SCT020 BKN250=



000
FTUS43 KLSX 240900 AAC
TAFCOU
TAF AMD
KCOU 240922Z 2409/2506 08012KT 3SM RA VCTS OVC015CB
     FM241300 09013KT 6SM -SHRA OVC015
     FM241800 11013KT P6SM BKN020
     FM250000 14012KT P6SM BKN030
      TEMPO 2500/2502 3SM TSRA OVC020CB
     FM250300 25012KT P6SM BKN030=



000
FTUS43 KLSX 240800 AAB
TAFSTL
TAF AMD
KSTL 240852Z 2409/2512 06011KT P6SM OVC011
     FM241300 09011KT 4SM -SHRA VCTS OVC015CB
     FM241700 11013KT P6SM BKN025
     FM250300 16014KT P6SM BKN020
      TEMPO 2503/2505 3SM TSRA OVC015CB
     FM250600 26010KT P6SM SCT020 BKN250=



000
FTUS43 KLSX 240800 AAB
TAFCOU
TAF AMD
KCOU 240850Z 2409/2506 08012KT 6SM -SHRA VCTS OVC015CB
     FM241300 09013KT 6SM -SHRA OVC015
     FM241800 11013KT P6SM BKN020
     FM250000 14012KT P6SM BKN030
      TEMPO 2500/2502 3SM TSRA OVC020CB
     FM250300 25012KT P6SM BKN030=



000
FTUS43 KLSX 240800 AAB
TAFCOU
TAF AMD
KCOU 240850Z 2409/2506 08012KT 6SM -SHRA VCTS OVC015CB
     FM241300 09013KT 6SM -SHRA OVC015
     FM241800 11013KT P6SM BKN020
     FM250000 14012KT P6SM BKN030
      TEMPO 2500/2502 3SM TSRA OVC020CB
     FM250300 25012KT P6SM BKN030=



000
FTUS43 KLSX 240800 AAA
TAFUIN
TAF AMD
KUIN 240835Z 2409/2506 08011KT 4SM -SHRA OVC010
      TEMPO 2409/2412 -FZRA
     FM241400 10013KT 6SM -SHRA OVC015
     FM241800 10014G23KT P6SM OVC020
     FM250300 17013KT P6SM OVC015
      TEMPO 2503/2505 4SM -SHRA=



000
FTUS43 KLSX 240800 AAA
TAFUIN
TAF AMD
KUIN 240835Z 2409/2506 08011KT 4SM -SHRA OVC010
      TEMPO 2409/2412 -FZRA
     FM241400 10013KT 6SM -SHRA OVC015
     FM241800 10014G23KT P6SM OVC020
     FM250300 17013KT P6SM OVC015
      TEMPO 2503/2505 4SM -SHRA=



000
FTUS43 KLSX 240700 AAA
TAFCOU
TAF AMD
KCOU 240722Z 2407/2506 06012KT P6SM VCSH SCT040 BKN120
     FM240900 08012KT 4SM -SHRA VCTS OVC015CB
     FM241300 09013KT 6SM -SHRA OVC015
     FM241800 11013KT P6SM BKN020
     FM250000 14012KT P6SM BKN030
      TEMPO 2500/2502 3SM TSRA OVC020CB
     FM250300 25012KT P6SM BKN030=



000
FTUS43 KLSX 240700 AAA
TAFCOU
TAF AMD
KCOU 240722Z 2407/2506 06012KT P6SM VCSH SCT040 BKN120
     FM240900 08012KT 4SM -SHRA VCTS OVC015CB
     FM241300 09013KT 6SM -SHRA OVC015
     FM241800 11013KT P6SM BKN020
     FM250000 14012KT P6SM BKN030
      TEMPO 2500/2502 3SM TSRA OVC020CB
     FM250300 25012KT P6SM BKN030=



000
FTUS43 KLSX 240600 AAA
TAFSUS
TAF AMD
KSUS 240641Z 2407/2506 05008KT P6SM BKN015
     FM241300 09011KT 4SM -SHRA VCTS OVC015CB
     FM241700 11013KT P6SM BKN025
     FM250300 16013KT P6SM BKN020
      TEMPO 2503/2505 3SM TSRA OVC015CB=



000
FTUS43 KLSX 240600 AAA
TAFSUS
TAF AMD
KSUS 240641Z 2407/2506 05008KT P6SM BKN015
     FM241300 09011KT 4SM -SHRA VCTS OVC015CB
     FM241700 11013KT P6SM BKN025
     FM250300 16013KT P6SM BKN020
      TEMPO 2503/2505 3SM TSRA OVC015CB=



000
FTUS43 KLSX 240600 AAA
TAFSTL
TAF AMD
KSTL 240631Z 2407/2512 05008KT P6SM BKN013
     FM241300 09011KT 4SM -SHRA VCTS OVC015CB
     FM241700 11013KT P6SM BKN025
     FM250300 16014KT P6SM BKN020
      TEMPO 2503/2505 3SM TSRA OVC015CB
     FM250600 26010KT P6SM SCT020 BKN250=



000
FTUS43 KLSX 240600 AAA
TAFSTL
TAF AMD
KSTL 240631Z 2407/2512 05008KT P6SM BKN013
     FM241300 09011KT 4SM -SHRA VCTS OVC015CB
     FM241700 11013KT P6SM BKN025
     FM250300 16014KT P6SM BKN020
      TEMPO 2503/2505 3SM TSRA OVC015CB
     FM250600 26010KT P6SM SCT020 BKN250=



000
FTUS43 KLSX 240500
TAFUIN
TAF
KUIN 240520Z 2406/2506 07012KT P6SM OVC015
     FM240900 08011KT 4SM -SHRA OVC015
      TEMPO 2411/2413 -FZRA
     FM241400 10013KT 6SM -SHRA OVC015
     FM241800 10014G23KT P6SM OVC020
     FM250300 17013KT P6SM OVC015
      TEMPO 2503/2505 4SM -SHRA=



000
FTUS43 KLSX 240500
TAFCOU
TAF
KCOU 240520Z 2406/2506 07012KT P6SM SCT020 BKN120
     FM240900 08012KT 4SM -SHRA VCTS OVC015CB
     FM241300 09013KT 6SM -SHRA OVC015
     FM241800 11013KT P6SM BKN020
     FM250000 14012KT P6SM BKN030
      TEMPO 2500/2502 3SM TSRA OVC020CB
     FM250300 25012KT P6SM BKN030=



000
FTUS43 KLSX 240500
TAFSUS
TAF
KSUS 240520Z 2406/2506 04009KT P6SM SCT015 BKN250
     FM240800 06008KT P6SM BKN015
     FM241300 09011KT 4SM -SHRA VCTS OVC015CB
     FM241700 11013KT P6SM BKN025
     FM250300 16013KT P6SM BKN020
      TEMPO 2503/2505 3SM TSRA OVC015CB=



000
FTUS43 KLSX 240500
TAFSTL
TAF
KSTL 240520Z 2406/2512 04010KT P6SM SCT015 BKN250
     FM240800 06009KT P6SM BKN015
     FM241300 09011KT 4SM -SHRA VCTS OVC015CB
     FM241700 11013KT P6SM BKN025
     FM250300 16014KT P6SM BKN020
      TEMPO 2503/2505 3SM TSRA OVC015CB
     FM250600 26010KT P6SM SCT020 BKN250=



    US Dept of Commerce
    National Oceanic and Atmospheric Administration
    National Weather Service
    1325 East West Highway
    Silver Spring, MD 20910
    Page Author: NWS Internet Services Team
Disclaimer
Information Quality
Credits
Glossary
Privacy Policy
Freedom of Information Act (FOIA)
About Us
Career Opportunities